sensor_id;sensor_type;location;lat;lon;timestamp;P1;durP1;ratioP1;P2;durP2;ratioP2
8268;SDS011;4174;48.304;16.364;2024-03-23T00:56:57;8.68;;;3.58;;
8268;SDS011;4174;48.304;16.364;2024-03-23T01:03:02;10.68;;;3.90;;
8268;SDS011;4174;48.304;16.364;2024-03-23T01:09:06;10.30;;;3.87;;
8268;SDS011;4174;48.304;16.364;2024-03-23T01:15:10;9.20;;;3.90;;
8268;SDS011;4174;48.304;16.364;2024-03-23T01:21:14;8.70;;;3.97;;
8268;SDS011;4174;48.304;16.364;2024-03-23T01:27:17;9.13;;;4.07;;
8268;SDS011;4174;48.304;16.364;2024-03-23T01:33:22;8.75;;;3.92;;
8268;SDS011;4174;48.304;16.364;2024-03-23T01:39:26;8.13;;;3.95;;
8268;SDS011;4174;48.304;16.364;2024-03-23T01:45:31;8.75;;;3.83;;
8268;SDS011;4174;48.304;16.364;2024-03-23T01:51:34;8.52;;;4.10;;
8268;SDS011;4174;48.304;16.364;2024-03-23T01:57:38;10.37;;;4.00;;
8268;SDS011;4174;48.304;16.364;2024-03-23T02:03:41;10.95;;;3.97;;
8268;SDS011;4174;48.304;16.364;2024-03-23T02:09:45;9.30;;;4.00;;
8268;SDS011;4174;48.304;16.364;2024-03-23T02:15:48;9.43;;;4.00;;
8268;SDS011;4174;48.304;16.364;2024-03-23T02:21:52;10.18;;;3.92;;
8268;SDS011;4174;48.304;16.364;2024-03-23T02:27:56;9.17;;;3.87;;
8268;SDS011;4174;48.304;16.364;2024-03-23T02:34:00;9.65;;;4.00;;
8268;SDS011;4174;48.304;16.364;2024-03-23T02:40:04;8.70;;;3.70;;
8268;SDS011;4174;48.304;16.364;2024-03-23T02:46:09;7.97;;;3.60;;
8268;SDS011;4174;48.304;16.364;2024-03-23T02:52:13;9.30;;;3.70;;
8268;SDS011;4174;48.304;16.364;2024-03-23T02:58:18;8.70;;;3.70;;
8268;SDS011;4174;48.304;16.364;2024-03-23T03:04:21;10.10;;;3.60;;
8268;SDS011;4174;48.304;16.364;2024-03-23T03:10:25;8.43;;;4.03;;
8268;SDS011;4174;48.304;16.364;2024-03-23T03:16:29;10.10;;;4.00;;
8268;SDS011;4174;48.304;16.364;2024-03-23T03:22:33;7.87;;;3.60;;
8268;SDS011;4174;48.304;16.364;2024-03-23T03:28:37;8.60;;;3.90;;
8268;SDS011;4174;48.304;16.364;2024-03-23T03:34:41;9.40;;;4.10;;
8268;SDS011;4174;48.304;16.364;2024-03-23T03:40:45;9.90;;;4.20;;
8268;SDS011;4174;48.304;16.364;2024-03-23T03:46:49;10.60;;;3.90;;
8268;SDS011;4174;48.304;16.364;2024-03-23T03:52:53;7.93;;;3.78;;
8268;SDS011;4174;48.304;16.364;2024-03-23T03:58:57;9.03;;;4.20;;
8268;SDS011;4174;48.304;16.364;2024-03-23T04:05:00;8.88;;;4.37;;
8268;SDS011;4174;48.304;16.364;2024-03-23T04:11:04;9.30;;;4.27;;
8268;SDS011;4174;48.304;16.364;2024-03-23T04:17:08;11.93;;;5.45;;
8268;SDS011;4174;48.304;16.364;2024-03-23T04:23:11;10.90;;;4.90;;
8268;SDS011;4174;48.304;16.364;2024-03-23T04:29:17;10.20;;;4.83;;
8268;SDS011;4174;48.304;16.364;2024-03-23T04:35:21;13.33;;;5.80;;
8268;SDS011;4174;48.304;16.364;2024-03-23T04:41:24;12.17;;;6.00;;
8268;SDS011;4174;48.304;16.364;2024-03-23T04:47:28;11.27;;;5.57;;
8268;SDS011;4174;48.304;16.364;2024-03-23T04:53:32;12.40;;;5.40;;
8268;SDS011;4174;48.304;16.364;2024-03-23T04:59:36;11.50;;;5.03;;
8268;SDS011;4174;48.304;16.364;2024-03-23T05:05:39;10.90;;;5.13;;
8268;SDS011;4174;48.304;16.364;2024-03-23T05:11:43;12.23;;;5.40;;
8268;SDS011;4174;48.304;16.364;2024-03-23T05:17:47;13.10;;;5.40;;
8268;SDS011;4174;48.304;16.364;2024-03-23T05:23:51;13.23;;;5.40;;
8268;SDS011;4174;48.304;16.364;2024-03-23T05:29:54;11.70;;;5.32;;
8268;SDS011;4174;48.304;16.364;2024-03-23T05:35:59;12.88;;;5.40;;
8268;SDS011;4174;48.304;16.364;2024-03-23T05:42:01;14.30;;;6.30;;
8268;SDS011;4174;48.304;16.364;2024-03-23T05:48:06;27.13;;;13.07;;
8268;SDS011;4174;48.304;16.364;2024-03-23T05:54:10;18.98;;;9.13;;
8268;SDS011;4174;48.304;16.364;2024-03-23T06:00:14;16.60;;;6.30;;
8268;SDS011;4174;48.304;16.364;2024-03-23T06:06:18;15.27;;;7.20;;
8268;SDS011;4174;48.304;16.364;2024-03-23T06:12:23;16.50;;;6.93;;
8268;SDS011;4174;48.304;16.364;2024-03-23T06:18:27;15.45;;;7.35;;
8268;SDS011;4174;48.304;16.364;2024-03-23T06:24:30;15.90;;;7.00;;
8268;SDS011;4174;48.304;16.364;2024-03-23T06:30:34;16.53;;;7.77;;
8268;SDS011;4174;48.304;16.364;2024-03-23T06:36:38;16.87;;;8.80;;
8268;SDS011;4174;48.304;16.364;2024-03-23T06:42:42;21.17;;;9.53;;
8268;SDS011;4174;48.304;16.364;2024-03-23T06:48:46;19.00;;;9.20;;
8268;SDS011;4174;48.304;16.364;2024-03-23T06:54:50;18.80;;;9.20;;
8268;SDS011;4174;48.304;16.364;2024-03-23T07:00:54;20.93;;;8.90;;
8268;SDS011;4174;48.304;16.364;2024-03-23T07:06:58;18.15;;;8.88;;
8268;SDS011;4174;48.304;16.364;2024-03-23T07:13:02;21.57;;;9.60;;
8268;SDS011;4174;48.304;16.364;2024-03-23T07:19:06;18.65;;;9.10;;
8268;SDS011;4174;48.304;16.364;2024-03-23T07:25:09;17.53;;;9.07;;
8268;SDS011;4174;48.304;16.364;2024-03-23T07:31:15;16.43;;;8.93;;
8268;SDS011;4174;48.304;16.364;2024-03-23T07:37:19;17.87;;;9.07;;
8268;SDS011;4174;48.304;16.364;2024-03-23T07:43:24;19.77;;;9.13;;
8268;SDS011;4174;48.304;16.364;2024-03-23T07:49:29;18.80;;;9.43;;
8268;SDS011;4174;48.304;16.364;2024-03-23T07:55:32;17.83;;;9.02;;
8268;SDS011;4174;48.304;16.364;2024-03-23T08:01:36;17.42;;;9.10;;
8268;SDS011;4174;48.304;16.364;2024-03-23T08:07:40;18.40;;;9.40;;
8268;SDS011;4174;48.304;16.364;2024-03-23T08:13:44;18.05;;;8.82;;
8268;SDS011;4174;48.304;16.364;2024-03-23T08:19:49;16.43;;;8.93;;
8268;SDS011;4174;48.304;16.364;2024-03-23T08:26:00;16.20;;;8.93;;
8268;SDS011;4174;48.304;16.364;2024-03-23T08:32:06;15.80;;;8.20;;
8268;SDS011;4174;48.304;16.364;2024-03-23T08:38:10;16.50;;;8.30;;
8268;SDS011;4174;48.304;16.364;2024-03-23T08:44:15;12.52;;;6.32;;
8268;SDS011;4174;48.304;16.364;2024-03-23T08:50:19;14.73;;;6.40;;
8268;SDS011;4174;48.304;16.364;2024-03-23T08:56:23;11.60;;;5.80;;
8268;SDS011;4174;48.304;16.364;2024-03-23T09:02:26;12.13;;;6.23;;
8268;SDS011;4174;48.304;16.364;2024-03-23T09:08:30;13.90;;;6.37;;
8268;SDS011;4174;48.304;16.364;2024-03-23T09:14:34;10.85;;;5.50;;
8268;SDS011;4174;48.304;16.364;2024-03-23T09:20:38;10.53;;;5.40;;
8268;SDS011;4174;48.304;16.364;2024-03-23T09:26:41;10.98;;;4.75;;
8268;SDS011;4174;48.304;16.364;2024-03-23T09:32:45;10.23;;;4.32;;
8268;SDS011;4174;48.304;16.364;2024-03-23T09:38:49;9.03;;;4.17;;
8268;SDS011;4174;48.304;16.364;2024-03-23T09:44:53;7.65;;;3.90;;
8268;SDS011;4174;48.304;16.364;2024-03-23T09:50:56;8.00;;;3.60;;
8268;SDS011;4174;48.304;16.364;2024-03-23T09:56:59;8.70;;;3.63;;
8268;SDS011;4174;48.304;16.364;2024-03-23T10:03:03;6.95;;;3.20;;
8268;SDS011;4174;48.304;16.364;2024-03-23T10:09:19;7.50;;;3.40;;
8268;SDS011;4174;48.304;16.364;2024-03-23T10:15:25;7.47;;;3.30;;
8268;SDS011;4174;48.304;16.364;2024-03-23T10:21:28;6.97;;;2.87;;
8268;SDS011;4174;48.304;16.364;2024-03-23T10:27:31;5.90;;;2.50;;
8268;SDS011;4174;48.304;16.364;2024-03-23T10:33:35;5.80;;;2.40;;
8268;SDS011;4174;48.304;16.364;2024-03-23T10:39:40;6.80;;;2.30;;
8268;SDS011;4174;48.304;16.364;2024-03-23T10:45:43;11.03;;;2.50;;
8268;SDS011;4174;48.304;16.364;2024-03-23T10:51:47;7.15;;;2.10;;
8268;SDS011;4174;48.304;16.364;2024-03-23T10:57:51;6.05;;;2.30;;
8268;SDS011;4174;48.304;16.364;2024-03-23T11:03:53;6.30;;;2.20;;
8268;SDS011;4174;48.304;16.364;2024-03-23T11:09:57;6.40;;;2.10;;
8268;SDS011;4174;48.304;16.364;2024-03-23T11:16:12;7.53;;;2.17;;
8268;SDS011;4174;48.304;16.364;2024-03-23T11:22:03;5.35;;;1.42;;
8268;SDS011;4174;48.304;16.364;2024-03-23T11:28:10;4.03;;;1.20;;
8268;SDS011;4174;48.304;16.364;2024-03-23T11:34:15;5.10;;;1.40;;
8268;SDS011;4174;48.304;16.364;2024-03-23T11:40:18;5.30;;;1.52;;
8268;SDS011;4174;48.304;16.364;2024-03-23T11:46:29;5.50;;;1.40;;
8268;SDS011;4174;48.304;16.364;2024-03-23T11:52:35;4.10;;;1.40;;
8268;SDS011;4174;48.304;16.364;2024-03-23T11:58:38;5.72;;;1.40;;
8268;SDS011;4174;48.304;16.364;2024-03-23T12:04:42;5.45;;;1.60;;
8268;SDS011;4174;48.304;16.364;2024-03-23T12:10:47;6.72;;;1.60;;
8268;SDS011;4174;48.304;16.364;2024-03-23T12:16:49;5.70;;;1.63;;
8268;SDS011;4174;48.304;16.364;2024-03-23T12:23:04;4.40;;;1.50;;
8268;SDS011;4174;48.304;16.364;2024-03-23T12:28:55;5.67;;;1.60;;
8268;SDS011;4174;48.304;16.364;2024-03-23T12:34:59;4.53;;;1.50;;
8268;SDS011;4174;48.304;16.364;2024-03-23T12:41:03;5.87;;;1.50;;
8268;SDS011;4174;48.304;16.364;2024-03-23T12:47:07;6.57;;;1.62;;
8268;SDS011;4174;48.304;16.364;2024-03-23T12:53:10;5.70;;;1.50;;
8268;SDS011;4174;48.304;16.364;2024-03-23T12:59:14;5.43;;;1.20;;
8268;SDS011;4174;48.304;16.364;2024-03-23T13:05:17;7.07;;;0.90;;
8268;SDS011;4174;48.304;16.364;2024-03-23T13:11:22;4.93;;;0.90;;
8268;SDS011;4174;48.304;16.364;2024-03-23T13:17:26;5.12;;;0.75;;
8268;SDS011;4174;48.304;16.364;2024-03-23T13:23:30;3.80;;;0.60;;
8268;SDS011;4174;48.304;16.364;2024-03-23T13:29:34;2.83;;;0.60;;
8268;SDS011;4174;48.304;16.364;2024-03-23T13:35:38;3.12;;;0.60;;
8268;SDS011;4174;48.304;16.364;2024-03-23T13:41:44;2.87;;;0.60;;
8268;SDS011;4174;48.304;16.364;2024-03-23T13:47:46;3.70;;;0.70;;
8268;SDS011;4174;48.304;16.364;2024-03-23T13:53:50;3.80;;;0.80;;
8268;SDS011;4174;48.304;16.364;2024-03-23T13:59:55;3.43;;;0.80;;
8268;SDS011;4174;48.304;16.364;2024-03-23T14:05:59;3.70;;;0.90;;
8268;SDS011;4174;48.304;16.364;2024-03-23T14:12:02;4.40;;;0.90;;
8268;SDS011;4174;48.304;16.364;2024-03-23T14:18:07;3.70;;;0.90;;
8268;SDS011;4174;48.304;16.364;2024-03-23T14:24:11;4.75;;;0.90;;
8268;SDS011;4174;48.304;16.364;2024-03-23T14:30:15;4.37;;;1.00;;
8268;SDS011;4174;48.304;16.364;2024-03-23T14:36:20;4.67;;;1.20;;
8268;SDS011;4174;48.304;16.364;2024-03-23T14:42:26;4.40;;;1.00;;
8268;SDS011;4174;48.304;16.364;2024-03-23T14:48:30;4.80;;;1.20;;
8268;SDS011;4174;48.304;16.364;2024-03-23T14:54:34;5.20;;;1.47;;
8268;SDS011;4174;48.304;16.364;2024-03-23T15:00:38;5.70;;;1.47;;
8268;SDS011;4174;48.304;16.364;2024-03-23T15:06:41;5.15;;;1.50;;
8268;SDS011;4174;48.304;16.364;2024-03-23T15:12:45;4.93;;;1.50;;
8268;SDS011;4174;48.304;16.364;2024-03-23T15:18:49;3.87;;;1.20;;
8268;SDS011;4174;48.304;16.364;2024-03-23T15:24:54;5.53;;;1.50;;
8268;SDS011;4174;48.304;16.364;2024-03-23T15:31:03;4.05;;;0.88;;
8268;SDS011;4174;48.304;16.364;2024-03-23T15:37:06;3.97;;;0.80;;
8268;SDS011;4174;48.304;16.364;2024-03-23T15:43:10;4.63;;;1.30;;
8268;SDS011;4174;48.304;16.364;2024-03-23T15:49:14;5.27;;;1.30;;
8268;SDS011;4174;48.304;16.364;2024-03-23T15:55:18;5.30;;;1.47;;
8268;SDS011;4174;48.304;16.364;2024-03-23T16:01:21;4.32;;;0.82;;
8268;SDS011;4174;48.304;16.364;2024-03-23T16:07:26;3.80;;;1.00;;
8268;SDS011;4174;48.304;16.364;2024-03-23T16:13:30;4.50;;;0.90;;
8268;SDS011;4174;48.304;16.364;2024-03-23T16:19:32;3.25;;;0.70;;
8268;SDS011;4174;48.304;16.364;2024-03-23T16:25:36;3.37;;;0.70;;
8268;SDS011;4174;48.304;16.364;2024-03-23T16:31:39;3.47;;;0.70;;
8268;SDS011;4174;48.304;16.364;2024-03-23T16:37:42;4.40;;;0.90;;
8268;SDS011;4174;48.304;16.364;2024-03-23T16:43:45;3.50;;;0.80;;
8268;SDS011;4174;48.304;16.364;2024-03-23T16:49:49;3.50;;;0.90;;
8268;SDS011;4174;48.304;16.364;2024-03-23T16:55:57;3.80;;;1.00;;
8268;SDS011;4174;48.304;16.364;2024-03-23T17:02:00;4.37;;;1.10;;
8268;SDS011;4174;48.304;16.364;2024-03-23T17:08:05;4.07;;;1.20;;
8268;SDS011;4174;48.304;16.364;2024-03-23T17:14:10;4.40;;;1.20;;
8268;SDS011;4174;48.304;16.364;2024-03-23T17:20:14;6.00;;;1.20;;
8268;SDS011;4174;48.304;16.364;2024-03-23T17:26:17;3.90;;;1.00;;
8268;SDS011;4174;48.304;16.364;2024-03-23T17:32:21;4.28;;;1.00;;
8268;SDS011;4174;48.304;16.364;2024-03-23T17:38:24;4.50;;;1.13;;
8268;SDS011;4174;48.304;16.364;2024-03-23T17:44:28;4.05;;;1.20;;
8268;SDS011;4174;48.304;16.364;2024-03-23T17:50:32;4.33;;;1.33;;
8268;SDS011;4174;48.304;16.364;2024-03-23T17:56:36;4.75;;;1.40;;
8268;SDS011;4174;48.304;16.364;2024-03-23T18:02:41;4.40;;;1.30;;
8268;SDS011;4174;48.304;16.364;2024-03-23T18:08:45;5.10;;;1.50;;
8268;SDS011;4174;48.304;16.364;2024-03-23T18:14:48;5.17;;;1.30;;
8268;SDS011;4174;48.304;16.364;2024-03-23T18:20:51;4.80;;;1.50;;
8268;SDS011;4174;48.304;16.364;2024-03-23T18:26:54;4.90;;;1.60;;
8268;SDS011;4174;48.304;16.364;2024-03-23T18:32:58;4.63;;;1.50;;
8268;SDS011;4174;48.304;16.364;2024-03-23T18:39:02;4.60;;;1.50;;
8268;SDS011;4174;48.304;16.364;2024-03-23T18:45:06;5.30;;;1.60;;
8268;SDS011;4174;48.304;16.364;2024-03-23T18:51:09;5.22;;;1.70;;
8268;SDS011;4174;48.304;16.364;2024-03-23T18:57:14;5.63;;;1.83;;
8268;SDS011;4174;48.304;16.364;2024-03-23T19:03:18;6.57;;;2.00;;
8268;SDS011;4174;48.304;16.364;2024-03-23T19:09:22;5.85;;;1.92;;
8268;SDS011;4174;48.304;16.364;2024-03-23T19:15:26;4.90;;;1.67;;
8268;SDS011;4174;48.304;16.364;2024-03-23T19:21:29;5.33;;;1.83;;
8268;SDS011;4174;48.304;16.364;2024-03-23T19:27:33;5.03;;;1.80;;
8268;SDS011;4174;48.304;16.364;2024-03-23T19:33:38;5.28;;;1.85;;
8268;SDS011;4174;48.304;16.364;2024-03-23T19:39:43;5.70;;;1.87;;
8268;SDS011;4174;48.304;16.364;2024-03-23T19:45:47;5.82;;;1.90;;
8268;SDS011;4174;48.304;16.364;2024-03-23T19:51:50;5.33;;;1.70;;
8268;SDS011;4174;48.304;16.364;2024-03-23T19:57:55;5.25;;;1.73;;
8268;SDS011;4174;48.304;16.364;2024-03-23T20:03:58;6.13;;;1.60;;
8268;SDS011;4174;48.304;16.364;2024-03-23T20:10:02;5.23;;;1.40;;
8268;SDS011;4174;48.304;16.364;2024-03-23T20:16:07;4.32;;;1.30;;
8268;SDS011;4174;48.304;16.364;2024-03-23T20:22:11;5.00;;;1.30;;
8268;SDS011;4174;48.304;16.364;2024-03-23T20:28:14;4.75;;;1.37;;
8268;SDS011;4174;48.304;16.364;2024-03-23T20:34:18;4.63;;;1.60;;
8268;SDS011;4174;48.304;16.364;2024-03-23T20:40:21;5.30;;;1.70;;
8268;SDS011;4174;48.304;16.364;2024-03-23T20:46:24;5.10;;;1.60;;
8268;SDS011;4174;48.304;16.364;2024-03-23T20:52:29;5.00;;;1.60;;
8268;SDS011;4174;48.304;16.364;2024-03-23T20:58:33;5.05;;;1.70;;
8268;SDS011;4174;48.304;16.364;2024-03-23T21:04:36;4.57;;;1.37;;
8268;SDS011;4174;48.304;16.364;2024-03-23T21:10:40;6.00;;;1.27;;
8268;SDS011;4174;48.304;16.364;2024-03-23T21:16:44;5.50;;;1.30;;
8268;SDS011;4174;48.304;16.364;2024-03-23T21:22:50;4.80;;;1.42;;
8268;SDS011;4174;48.304;16.364;2024-03-23T21:28:53;4.72;;;1.40;;
8268;SDS011;4174;48.304;16.364;2024-03-23T21:34:57;5.93;;;1.70;;
8268;SDS011;4174;48.304;16.364;2024-03-23T21:41:00;5.30;;;1.90;;
8268;SDS011;4174;48.304;16.364;2024-03-23T21:47:04;5.87;;;1.80;;
8268;SDS011;4174;48.304;16.364;2024-03-23T21:53:08;5.68;;;1.90;;
8268;SDS011;4174;48.304;16.364;2024-03-23T21:59:12;5.97;;;1.83;;
8268;SDS011;4174;48.304;16.364;2024-03-23T22:05:16;6.87;;;2.05;;
8268;SDS011;4174;48.304;16.364;2024-03-23T22:11:21;5.87;;;2.00;;
8268;SDS011;4174;48.304;16.364;2024-03-23T22:17:24;6.20;;;2.07;;
8268;SDS011;4174;48.304;16.364;2024-03-23T22:23:29;5.43;;;2.00;;
8268;SDS011;4174;48.304;16.364;2024-03-23T22:29:31;5.33;;;2.00;;
8268;SDS011;4174;48.304;16.364;2024-03-23T22:35:35;5.07;;;1.93;;
8268;SDS011;4174;48.304;16.364;2024-03-23T22:41:39;5.63;;;1.80;;
8268;SDS011;4174;48.304;16.364;2024-03-23T22:47:43;5.80;;;1.70;;
8268;SDS011;4174;48.304;16.364;2024-03-23T22:53:46;5.53;;;1.87;;
8268;SDS011;4174;48.304;16.364;2024-03-23T22:59:50;4.93;;;1.60;;
8268;SDS011;4174;48.304;16.364;2024-03-23T23:06:00;4.87;;;1.50;;
8268;SDS011;4174;48.304;16.364;2024-03-23T23:12:04;4.55;;;1.50;;
8268;SDS011;4174;48.304;16.364;2024-03-23T23:18:09;6.03;;;1.50;;
8268;SDS011;4174;48.304;16.364;2024-03-23T23:24:12;5.17;;;1.70;;
8268;SDS011;4174;48.304;16.364;2024-03-23T23:30:15;5.50;;;1.90;;
8268;SDS011;4174;48.304;16.364;2024-03-23T23:36:20;6.03;;;1.90;;
8268;SDS011;4174;48.304;16.364;2024-03-23T23:42:24;4.97;;;1.70;;
8268;SDS011;4174;48.304;16.364;2024-03-23T23:48:28;5.53;;;1.80;;
8268;SDS011;4174;48.304;16.364;2024-03-23T23:54:33;6.60;;;2.00;;
